createdAt,value
2017-10-20T00:02:11.104Z,19.16
2017-10-20T00:04:39.410Z,17.88
2017-10-20T00:07:08.676Z,12.56
2017-10-20T00:09:36.991Z,11.04
2017-10-20T00:12:05.355Z,15.10
2017-10-20T00:14:33.676Z,12.80
2017-10-20T00:17:02.012Z,14.46
2017-10-20T00:19:30.958Z,13.02
2017-10-20T00:21:59.410Z,12.00
2017-10-20T00:24:27.826Z,14.30
2017-10-20T00:26:55.468Z,10.56
2017-10-20T00:29:23.800Z,9.00
2017-10-20T00:31:52.155Z,8.90
2017-10-20T00:34:20.486Z,8.02
2017-10-20T00:36:48.868Z,10.38
2017-10-20T00:39:17.206Z,9.22
2017-10-20T00:41:45.567Z,8.20
2017-10-20T00:44:13.156Z,8.96
2017-10-20T00:46:41.559Z,11.12
2017-10-20T00:49:09.876Z,11.48
2017-10-20T00:51:39.543Z,9.78
2017-10-20T00:54:08.754Z,8.60
2017-10-20T00:56:38.082Z,8.86
2017-10-20T00:59:06.394Z,9.90
2017-10-20T01:01:34.788Z,8.76
2017-10-20T01:04:03.109Z,8.08
2017-10-20T01:06:31.532Z,8.26
2017-10-20T01:08:59.831Z,7.90
2017-10-20T01:11:28.175Z,11.50
2017-10-20T01:13:57.020Z,8.46
2017-10-20T01:16:25.333Z,11.06
2017-10-20T01:18:53.676Z,10.02
2017-10-20T01:21:22.003Z,11.10
2017-10-20T01:23:50.335Z,8.28
2017-10-20T01:26:18.640Z,8.22
2017-10-20T01:28:46.982Z,8.42
2017-10-20T01:31:15.315Z,11.04
2017-10-20T01:33:43.635Z,10.18
2017-10-20T01:36:11.978Z,10.90
2017-10-20T01:38:40.287Z,9.52
2017-10-20T01:41:09.959Z,9.32
2017-10-20T01:43:39.543Z,8.74
2017-10-20T01:46:08.835Z,9.38
2017-10-20T01:48:38.099Z,9.52
2017-10-20T01:51:06.459Z,9.02
2017-10-20T01:53:34.804Z,9.48
2017-10-20T01:56:03.110Z,10.78
2017-10-20T01:58:31.434Z,8.80
2017-10-20T02:00:59.738Z,11.06
2017-10-20T02:03:28.071Z,15.96
2017-10-20T02:05:56.931Z,13.24
2017-10-20T02:08:25.258Z,10.50
2017-10-20T02:10:53.571Z,10.74
2017-10-20T02:13:21.932Z,13.88
2017-10-20T02:15:50.248Z,13.42
2017-10-20T02:18:18.639Z,9.80
2017-10-20T02:20:46.971Z,10.18
2017-10-20T02:23:15.287Z,10.40
2017-10-20T02:25:43.658Z,11.92
2017-10-20T02:28:12.072Z,10.40
2017-10-20T02:30:40.407Z,13.64
2017-10-20T02:33:09.746Z,9.78
2017-10-20T02:35:38.094Z,14.54
2017-10-20T02:38:06.419Z,14.26
2017-10-20T02:40:34.736Z,10.24
2017-10-20T02:43:03.144Z,13.14
2017-10-20T02:45:31.458Z,13.28
2017-10-20T02:47:59.844Z,9.88
2017-10-20T02:50:27.391Z,7.90
2017-10-20T02:52:56.867Z,8.22
2017-10-20T02:55:26.060Z,9.74
2017-10-20T02:57:54.812Z,7.94
2017-10-20T03:00:23.123Z,8.02
2017-10-20T03:02:51.479Z,9.28
2017-10-20T03:05:19.807Z,7.70
2017-10-20T03:07:48.106Z,7.52
2017-10-20T03:10:16.443Z,7.50
2017-10-20T03:12:44.805Z,8.34
2017-10-20T03:15:13.139Z,8.08
2017-10-20T03:17:41.492Z,8.50
2017-10-20T03:20:09.851Z,9.26
2017-10-20T03:22:38.763Z,9.44
2017-10-20T03:25:07.072Z,8.86
2017-10-20T03:27:35.451Z,8.66
2017-10-20T03:30:03.776Z,9.40
2017-10-20T03:32:32.359Z,9.84
2017-10-20T03:35:00.676Z,10.08
2017-10-20T03:37:29.071Z,9.64
2017-10-20T03:39:57.382Z,10.80
2017-10-20T03:42:27.012Z,8.84
2017-10-20T03:44:55.328Z,10.22
2017-10-20T03:47:23.680Z,9.76
2017-10-20T03:49:52.011Z,9.28
2017-10-20T03:52:20.388Z,10.10
2017-10-20T03:54:48.725Z,10.50
2017-10-20T03:57:17.086Z,9.92
2017-10-20T03:59:45.426Z,10.18
2017-10-20T04:02:13.823Z,10.40
2017-10-20T04:04:42.179Z,10.64
2017-10-20T04:07:10.503Z,9.46
2017-10-20T04:09:39.839Z,10.76
2017-10-20T04:12:08.648Z,10.08
2017-10-20T04:14:38.125Z,9.78
2017-10-20T04:17:06.484Z,9.46
2017-10-20T04:19:35.827Z,10.96
2017-10-20T04:22:04.184Z,9.40
2017-10-20T04:24:32.530Z,9.50
2017-10-20T04:27:00.863Z,10.22
2017-10-20T04:29:29.275Z,10.20
2017-10-20T04:31:57.658Z,10.44
2017-10-20T04:34:27.366Z,9.50
2017-10-20T04:36:56.706Z,8.62
2017-10-20T04:39:26.678Z,10.60
2017-10-20T04:41:56.223Z,10.92
2017-10-20T04:44:25.148Z,12.42
2017-10-20T04:46:53.498Z,11.74
2017-10-20T04:49:21.923Z,9.12
2017-10-20T04:51:50.255Z,8.80
2017-10-20T04:54:18.623Z,7.56
2017-10-20T04:56:46.931Z,9.30
2017-10-20T04:59:15.348Z,7.92
2017-10-20T05:01:43.680Z,11.12
2017-10-20T05:04:12.019Z,11.82
2017-10-20T05:06:40.050Z,9.68
2017-10-20T05:09:08.395Z,8.20
2017-10-20T05:11:36.698Z,9.06
2017-10-20T05:14:05.006Z,8.96
2017-10-20T05:16:33.351Z,10.10
2017-10-20T05:19:01.688Z,13.28
2017-10-20T05:21:30.019Z,17.88
2017-10-20T05:23:58.333Z,11.28
2017-10-20T05:26:26.682Z,12.14
2017-10-20T05:28:55.935Z,11.70
2017-10-20T05:31:24.352Z,11.48
2017-10-20T05:33:51.927Z,17.22
2017-10-20T05:36:20.285Z,19.82
2017-10-20T05:38:48.620Z,13.14
2017-10-20T05:41:16.982Z,14.44
2017-10-20T05:43:45.328Z,11.66
2017-10-20T05:46:13.651Z,11.66
2017-10-20T05:48:41.972Z,12.00
2017-10-20T05:51:09.615Z,11.12
2017-10-20T05:53:38.782Z,11.46
2017-10-20T05:56:07.967Z,12.80
2017-10-20T05:58:36.383Z,12.46
2017-10-20T06:01:04.715Z,12.14
2017-10-20T06:03:33.035Z,11.56
2017-10-20T06:06:01.360Z,11.22
2017-10-20T06:08:29.691Z,12.12
2017-10-20T06:10:58.000Z,13.16
2017-10-20T06:13:27.506Z,11.86
2017-10-20T06:15:55.860Z,12.16
2017-10-20T06:18:24.948Z,12.60
2017-10-20T06:20:53.268Z,12.64
2017-10-20T06:23:21.588Z,11.90
2017-10-20T06:25:49.952Z,11.56
2017-10-20T06:28:18.287Z,11.50
2017-10-20T06:30:46.685Z,11.78
2017-10-20T06:33:15.012Z,12.28
2017-10-20T06:35:43.493Z,11.30
2017-10-20T06:38:11.808Z,11.46
2017-10-20T06:40:40.151Z,11.26
2017-10-20T06:43:08.682Z,12.22
2017-10-20T06:45:36.995Z,12.48
2017-10-20T06:48:05.367Z,11.78
2017-10-20T06:50:33.699Z,11.58
2017-10-20T06:53:02.047Z,12.40
2017-10-20T06:55:30.407Z,12.90
2017-10-20T06:57:58.719Z,11.42
2017-10-20T07:00:27.050Z,11.06
2017-10-20T07:02:55.367Z,11.66
2017-10-20T07:05:24.296Z,11.08
2017-10-20T07:07:52.631Z,10.92
2017-10-20T07:10:20.990Z,10.74
2017-10-20T07:12:48.535Z,10.40
2017-10-20T07:15:16.851Z,10.90
2017-10-20T07:17:45.191Z,10.78
2017-10-20T07:20:13.511Z,10.58
2017-10-20T07:22:41.871Z,10.04
2017-10-20T07:25:10.175Z,9.54
2017-10-20T07:27:39.494Z,10.40
2017-10-20T07:30:08.335Z,11.72
2017-10-20T07:32:36.695Z,10.88
2017-10-20T07:35:05.011Z,10.78
2017-10-20T07:37:33.343Z,10.64
2017-10-20T07:40:01.679Z,11.00
2017-10-20T07:42:30.048Z,11.20
2017-10-20T07:44:58.376Z,11.30
2017-10-20T07:47:26.766Z,11.04
2017-10-20T07:49:56.146Z,10.20
2017-10-20T07:52:24.909Z,9.48
2017-10-20T07:54:53.254Z,9.16
2017-10-20T07:57:21.614Z,9.70
2017-10-20T07:59:49.919Z,9.38
2017-10-20T08:02:18.254Z,9.22
2017-10-20T08:04:46.566Z,9.84
2017-10-20T08:07:14.961Z,8.76
2017-10-20T08:09:43.267Z,9.18
2017-10-20T08:12:11.594Z,8.32
2017-10-20T08:14:39.894Z,8.24
2017-10-20T08:17:09.271Z,9.92
2017-10-20T08:19:38.155Z,5.48
2017-10-20T08:22:06.531Z,5.26
2017-10-20T08:24:34.855Z,4.68
2017-10-20T08:27:03.238Z,3.80
2017-10-20T08:29:31.665Z,2.88
2017-10-20T08:32:00.056Z,2.30
2017-10-20T08:34:28.387Z,2.52
2017-10-20T08:36:56.763Z,2.40
2017-10-20T08:39:26.145Z,2.62
2017-10-20T08:41:54.930Z,2.56
2017-10-20T08:44:23.239Z,2.22
2017-10-20T08:46:51.692Z,2.20
2017-10-20T08:49:20.010Z,1.94
2017-10-20T08:51:48.354Z,1.92
2017-10-20T08:54:16.667Z,2.20
2017-10-20T08:56:44.263Z,2.42
2017-10-20T08:59:12.568Z,2.24
2017-10-20T09:01:40.915Z,2.12
2017-10-20T09:04:09.219Z,3.16
2017-10-20T09:06:38.630Z,6.40
2017-10-20T09:09:07.686Z,8.94
2017-10-20T09:11:35.995Z,2.12
2017-10-20T09:14:04.331Z,5.94
2017-10-20T09:16:32.637Z,2.60
2017-10-20T09:19:00.967Z,2.58
2017-10-20T09:21:29.303Z,4.36
2017-10-20T09:23:57.607Z,2.60
2017-10-20T09:26:27.281Z,3.36
2017-10-20T09:28:56.546Z,4.70
2017-10-20T09:31:24.934Z,17.58
2017-10-20T09:33:53.234Z,5.32
2017-10-20T09:36:20.825Z,2.20
2017-10-20T09:38:49.126Z,2.08
2017-10-20T09:41:17.477Z,5.32
2017-10-20T09:43:45.775Z,2.74
2017-10-20T09:46:13.318Z,3.02
2017-10-20T09:48:41.645Z,2.42
2017-10-20T09:51:09.951Z,2.56
2017-10-20T09:53:39.303Z,2.60
2017-10-20T09:56:09.010Z,2.84
2017-10-20T09:58:38.419Z,2.26
2017-10-20T10:01:06.722Z,2.32
2017-10-20T10:03:35.072Z,2.50
2017-10-20T10:06:03.377Z,2.98
2017-10-20T10:08:31.687Z,1.96
2017-10-20T10:11:00.022Z,2.30
2017-10-20T10:13:28.323Z,2.44
2017-10-20T10:15:56.651Z,2.42
2017-10-20T10:18:25.924Z,2.26
2017-10-20T10:20:54.874Z,2.42
2017-10-20T10:23:23.639Z,2.28
2017-10-20T10:25:51.248Z,2.54
2017-10-20T10:28:19.551Z,3.28
2017-10-20T10:30:47.904Z,2.62
2017-10-20T10:33:15.435Z,2.60
2017-10-20T10:35:43.791Z,2.30
2017-10-20T10:38:12.100Z,2.28
2017-10-20T10:40:40.431Z,2.30
2017-10-20T10:43:10.196Z,2.70
2017-10-20T10:45:39.715Z,2.06
2017-10-20T10:48:09.070Z,2.10
2017-10-20T10:50:38.364Z,2.10
2017-10-20T10:53:06.702Z,2.20
2017-10-20T10:55:34.246Z,2.40
2017-10-20T10:58:02.576Z,2.14
2017-10-20T11:00:30.884Z,2.04
2017-10-20T11:02:58.440Z,1.78
2017-10-20T11:05:38.713Z,2.24
2017-10-20T11:08:18.872Z,2.24
2017-10-20T11:10:59.123Z,2.18
2017-10-20T11:13:27.455Z,1.80
2017-10-20T11:15:56.979Z,2.42
2017-10-20T11:18:25.311Z,2.48
2017-10-20T11:20:52.851Z,2.38
2017-10-20T11:23:21.175Z,3.52
2017-10-20T11:25:49.622Z,5.76
2017-10-20T11:28:17.951Z,9.66
2017-10-20T11:30:46.347Z,12.28
2017-10-20T11:33:14.686Z,11.80
2017-10-20T11:35:43.034Z,4.44
2017-10-20T11:38:11.367Z,4.10
2017-10-20T11:40:39.763Z,7.24
2017-10-20T11:43:08.100Z,2.60
2017-10-20T11:45:36.468Z,17.56
2017-10-20T11:48:04.820Z,2.80
2017-10-20T11:50:33.179Z,35.20
2017-10-20T11:53:01.492Z,17.80
2017-10-20T11:55:29.899Z,13.46
2017-10-20T11:57:58.203Z,4.68
2017-10-20T12:00:26.631Z,3.46
2017-10-20T12:02:55.519Z,3.98
2017-10-20T12:05:23.947Z,2.66
2017-10-20T12:07:52.267Z,2.76
2017-10-20T12:10:20.593Z,2.86
2017-10-20T12:12:48.890Z,2.54
2017-10-20T12:15:17.218Z,6.20
2017-10-20T12:17:45.523Z,4.42
2017-10-20T12:20:13.871Z,2.72
2017-10-20T12:22:42.180Z,2.80
2017-10-20T12:25:10.503Z,2.88
2017-10-20T12:27:40.131Z,2.80
2017-10-20T12:30:09.751Z,2.32
2017-10-20T12:32:38.970Z,2.46
2017-10-20T12:35:06.522Z,3.10
2017-10-20T12:37:34.830Z,2.94
2017-10-20T12:40:03.159Z,2.34
2017-10-20T12:42:31.460Z,3.18
2017-10-20T12:44:59.038Z,2.24
2017-10-20T12:47:27.368Z,2.64
2017-10-20T12:49:56.333Z,2.46
2017-10-20T12:52:25.814Z,2.82
2017-10-20T12:54:54.124Z,2.60
2017-10-20T12:57:23.332Z,2.66
2017-10-20T12:59:51.652Z,2.12
2017-10-20T13:02:19.971Z,2.44
2017-10-20T13:04:48.275Z,2.04
2017-10-20T13:07:16.611Z,2.22
2017-10-20T13:09:45.999Z,3.40
2017-10-20T13:12:14.475Z,2.36
2017-10-20T13:14:42.794Z,2.36
2017-10-20T13:17:11.125Z,2.88
2017-10-20T13:19:40.827Z,2.20
2017-10-20T13:22:09.788Z,3.42
2017-10-20T13:24:38.086Z,2.70
2017-10-20T13:27:06.413Z,2.72
2017-10-20T13:29:34.719Z,2.44
2017-10-20T13:32:03.047Z,2.24
2017-10-20T13:34:31.378Z,2.34
2017-10-20T13:36:59.727Z,2.54
2017-10-20T13:39:28.032Z,2.50
2017-10-20T13:41:57.251Z,2.50
2017-10-20T13:44:26.851Z,3.24
2017-10-20T13:46:56.132Z,2.80
2017-10-20T13:49:25.470Z,2.64
2017-10-20T13:51:53.766Z,2.80
2017-10-20T13:54:21.332Z,2.56
2017-10-20T13:56:49.637Z,2.40
2017-10-20T13:59:17.979Z,3.00
2017-10-20T14:01:46.286Z,2.56
2017-10-20T14:04:14.615Z,3.00
2017-10-20T14:06:42.927Z,2.36
2017-10-20T14:09:11.270Z,2.40
2017-10-20T14:11:39.579Z,2.14
2017-10-20T14:14:08.763Z,2.56
2017-10-20T14:16:37.891Z,2.54
2017-10-20T14:19:06.298Z,2.92
2017-10-20T14:21:34.610Z,2.58
2017-10-20T14:24:02.992Z,2.54
2017-10-20T14:26:31.343Z,2.38
2017-10-20T14:28:59.671Z,2.74
2017-10-20T14:31:27.972Z,4.28
2017-10-20T14:33:57.589Z,2.94
2017-10-20T14:36:27.091Z,6.16
2017-10-20T14:38:55.395Z,3.20
2017-10-20T14:41:24.945Z,3.64
2017-10-20T14:43:53.319Z,3.76
2017-10-20T14:46:21.673Z,2.82
2017-10-20T14:48:49.979Z,2.76
2017-10-20T14:51:18.302Z,2.70
2017-10-20T14:53:46.612Z,2.98
2017-10-20T14:56:15.172Z,3.40
2017-10-20T14:58:43.483Z,3.38
2017-10-20T15:01:11.827Z,3.44
2017-10-20T15:03:40.135Z,3.48
2017-10-20T15:06:09.466Z,2.76
2017-10-20T15:08:38.783Z,2.26
2017-10-20T15:11:08.159Z,2.70
2017-10-20T15:13:38.184Z,3.36
2017-10-20T15:16:06.670Z,2.86
2017-10-20T15:18:34.979Z,2.60
2017-10-20T15:21:03.318Z,3.08
2017-10-20T15:23:31.636Z,2.50
2017-10-20T15:26:01.027Z,3.30
2017-10-20T15:28:29.344Z,4.02
2017-10-20T15:30:57.643Z,3.24
2017-10-20T15:33:26.806Z,2.86
2017-10-20T15:35:55.957Z,3.06
2017-10-20T15:38:24.988Z,3.50
2017-10-20T15:40:53.297Z,2.76
2017-10-20T15:43:21.747Z,2.62
2017-10-20T15:45:50.060Z,2.60
2017-10-20T15:48:18.403Z,2.80
2017-10-20T15:50:46.712Z,2.78
2017-10-20T15:53:15.038Z,3.00
2017-10-20T15:55:43.347Z,3.50
2017-10-20T15:58:11.679Z,2.90
2017-10-20T16:00:40.004Z,3.00
2017-10-20T16:03:09.570Z,2.98
2017-10-20T16:05:38.992Z,2.68
2017-10-20T16:08:07.360Z,2.58
2017-10-20T16:10:35.676Z,2.82
2017-10-20T16:13:04.007Z,3.44
2017-10-20T16:15:32.310Z,2.30
2017-10-20T16:18:00.635Z,2.94
2017-10-20T16:20:28.942Z,4.96
2017-10-20T16:22:57.282Z,9.02
2017-10-20T16:25:26.318Z,3.48
2017-10-20T16:27:55.902Z,3.58
2017-10-20T16:30:25.279Z,5.02
2017-10-20T16:32:53.595Z,11.62
2017-10-20T16:35:21.919Z,4.30
2017-10-20T16:37:50.249Z,3.72
2017-10-20T16:40:18.587Z,7.86
2017-10-20T16:42:46.915Z,6.94
2017-10-20T16:45:15.287Z,8.14
2017-10-20T16:47:43.603Z,3.28
2017-10-20T16:50:11.987Z,26.10
2017-10-20T16:52:39.657Z,10.02
2017-10-20T16:55:08.118Z,5.04
2017-10-20T16:57:36.428Z,4.28
2017-10-20T17:00:08.089Z,4.48
2017-10-20T17:02:36.436Z,10.22
2017-10-20T17:05:04.770Z,13.94
2017-10-20T17:07:33.110Z,6.22
2017-10-20T17:10:01.528Z,14.96
2017-10-20T17:12:29.841Z,31.86
2017-10-20T17:14:58.173Z,28.08
2017-10-20T17:17:26.490Z,9.02
2017-10-20T17:19:55.883Z,8.10
2017-10-20T17:22:24.839Z,5.58
2017-10-20T17:24:53.159Z,4.84
2017-10-20T17:27:21.492Z,3.60
2017-10-20T17:29:50.051Z,4.24
2017-10-20T17:32:18.579Z,5.90
2017-10-20T17:34:46.122Z,3.98
2017-10-20T17:37:14.462Z,3.72
2017-10-20T17:39:42.767Z,3.26
2017-10-20T17:42:11.118Z,3.68
2017-10-20T17:44:39.514Z,3.72
2017-10-20T17:47:08.891Z,3.36
2017-10-20T17:49:38.208Z,3.28
2017-10-20T17:52:06.536Z,3.34
2017-10-20T17:54:34.854Z,3.92
2017-10-20T17:57:03.263Z,3.22
2017-10-20T17:59:31.588Z,3.06
2017-10-20T18:01:59.925Z,3.44
2017-10-20T18:04:28.247Z,4.08
2017-10-20T18:06:56.583Z,3.60
2017-10-20T18:09:25.896Z,3.00
2017-10-20T18:11:54.867Z,4.24
2017-10-20T18:14:23.195Z,3.58
2017-10-20T18:16:51.527Z,4.74
2017-10-20T18:19:19.830Z,3.44
2017-10-20T18:21:48.227Z,3.56
2017-10-20T18:24:16.536Z,3.06
2017-10-20T18:26:44.848Z,3.12
2017-10-20T18:29:13.192Z,3.54
2017-10-20T18:31:41.494Z,3.60
2017-10-20T18:34:09.831Z,3.44
2017-10-20T18:36:38.155Z,3.64
2017-10-20T18:39:06.539Z,3.66
2017-10-20T18:41:34.860Z,4.92
2017-10-20T18:44:03.243Z,5.32
2017-10-20T18:46:31.549Z,4.20
2017-10-20T18:48:59.888Z,7.90
2017-10-20T18:51:28.203Z,4.58
2017-10-20T18:53:56.534Z,3.88
2017-10-20T18:56:24.912Z,3.50
2017-10-20T18:58:53.895Z,3.96
2017-10-20T19:01:22.207Z,5.02
2017-10-20T19:03:50.545Z,4.32
2017-10-20T19:06:18.939Z,3.62
2017-10-20T19:08:47.374Z,3.74
2017-10-20T19:11:15.678Z,3.52
2017-10-20T19:13:44.013Z,3.92
2017-10-20T19:16:12.325Z,3.84
2017-10-20T19:18:40.671Z,3.56
2017-10-20T19:21:08.613Z,4.10
2017-10-20T19:23:38.524Z,3.28
2017-10-20T19:26:07.677Z,3.86
2017-10-20T19:28:35.990Z,3.50
2017-10-20T19:31:04.319Z,3.62
2017-10-20T19:33:32.650Z,3.72
2017-10-20T19:36:00.982Z,3.82
2017-10-20T19:38:29.299Z,3.98
2017-10-20T19:40:57.685Z,3.36
2017-10-20T19:43:26.000Z,3.92
2017-10-20T19:45:55.567Z,4.66
2017-10-20T19:48:24.870Z,3.60
2017-10-20T19:50:54.543Z,4.48
2017-10-20T19:53:23.969Z,4.08
2017-10-20T19:55:52.301Z,3.82
2017-10-20T19:58:20.604Z,4.24
2017-10-20T20:00:48.953Z,4.70
2017-10-20T20:03:17.274Z,3.56
2017-10-20T20:05:45.599Z,4.54
2017-10-20T20:08:13.911Z,4.08
2017-10-20T20:10:42.239Z,3.16
2017-10-20T20:13:10.559Z,3.46
2017-10-20T20:15:40.254Z,4.24
2017-10-20T20:18:09.874Z,3.24
2017-10-20T20:20:38.626Z,3.04
2017-10-20T20:23:07.798Z,5.56
2017-10-20T20:25:36.107Z,4.12
2017-10-20T20:28:04.436Z,3.56
2017-10-20T20:30:33.367Z,3.08
2017-10-20T20:33:13.549Z,4.52
2017-10-20T20:35:41.868Z,18.66
2017-10-20T20:38:10.199Z,7.12
2017-10-20T20:40:39.648Z,4.88
2017-10-20T20:43:08.924Z,4.04
2017-10-20T20:45:37.672Z,3.62
2017-10-20T20:48:06.002Z,3.10
2017-10-20T20:50:34.312Z,23.78
2017-10-20T20:53:02.643Z,14.14
2017-10-20T20:55:30.960Z,9.60
2017-10-20T20:57:59.297Z,4.80
2017-10-20T21:00:27.499Z,21.62
2017-10-20T21:02:55.843Z,35.88
2017-10-20T21:05:25.389Z,11.78
2017-10-20T21:07:53.731Z,6.52
2017-10-20T21:10:22.047Z,9.30
2017-10-20T21:12:50.399Z,5.48
2017-10-20T21:15:18.716Z,11.26
2017-10-20T21:17:47.047Z,10.80
2017-10-20T21:20:15.380Z,6.12
2017-10-20T21:22:43.686Z,6.10
2017-10-20T21:25:12.011Z,5.40
2017-10-20T21:27:40.352Z,6.04
2017-10-20T21:30:10.008Z,10.16
2017-10-20T21:32:39.391Z,4.12
2017-10-20T21:35:08.390Z,6.42
2017-10-20T21:37:38.970Z,13.44
2017-10-20T21:40:08.396Z,15.88
2017-10-20T21:42:36.715Z,10.04
2017-10-20T21:45:05.058Z,20.38
2017-10-20T21:47:33.367Z,18.70
2017-10-20T21:50:01.716Z,9.42
2017-10-20T21:52:30.019Z,9.18
2017-10-20T21:54:58.375Z,27.88
2017-10-20T21:57:26.698Z,15.10
2017-10-20T21:59:55.042Z,20.72
2017-10-20T22:02:23.420Z,10.72
2017-10-20T22:04:51.762Z,11.60
2017-10-20T22:07:20.077Z,5.60
2017-10-20T22:09:48.436Z,5.78
2017-10-20T22:12:16.738Z,6.70
2017-10-20T22:14:45.055Z,5.48
2017-10-20T22:17:13.395Z,4.12
2017-10-20T22:19:42.667Z,4.10
2017-10-20T22:22:11.007Z,4.30
2017-10-20T22:24:40.431Z,4.16
2017-10-20T22:27:09.754Z,3.62
2017-10-20T22:29:38.612Z,3.90
2017-10-20T22:32:07.706Z,3.40
2017-10-20T22:34:36.007Z,3.36
2017-10-20T22:37:04.331Z,4.32
2017-10-20T22:39:33.834Z,4.18
2017-10-20T22:42:02.160Z,3.50
2017-10-20T22:44:30.463Z,4.56
2017-10-20T22:46:58.790Z,3.40
2017-10-20T22:49:28.150Z,4.38
2017-10-20T22:51:56.490Z,3.50
2017-10-20T22:54:24.827Z,3.84
2017-10-20T22:56:53.131Z,3.60
2017-10-20T22:59:21.464Z,4.08
2017-10-20T23:01:49.778Z,5.56
2017-10-20T23:04:18.115Z,5.54
2017-10-20T23:06:46.415Z,3.84
2017-10-20T23:09:14.748Z,3.90
2017-10-20T23:11:43.058Z,4.22
2017-10-20T23:14:11.411Z,4.00
2017-10-20T23:16:39.726Z,4.28
2017-10-20T23:19:08.031Z,4.10
2017-10-20T23:21:36.360Z,3.68
2017-10-20T23:24:04.670Z,3.34
2017-10-20T23:26:33.007Z,3.46
2017-10-20T23:29:01.320Z,4.70
2017-10-20T23:31:29.649Z,3.70
2017-10-20T23:33:57.955Z,4.00
2017-10-20T23:36:26.290Z,4.14
2017-10-20T23:38:54.610Z,4.12
2017-10-20T23:41:22.909Z,3.52
2017-10-20T23:43:51.260Z,3.52
2017-10-20T23:46:19.559Z,3.78
2017-10-20T23:48:47.894Z,3.98
2017-10-20T23:51:16.199Z,3.70
2017-10-20T23:53:44.535Z,4.48
2017-10-20T23:56:12.838Z,3.88
2017-10-20T23:58:41.182Z,4.66
